createdAt,value
2023-02-22T00:01:22.039Z,94211.47
2023-02-22T00:03:51.656Z,94205.44
2023-02-22T00:06:20.928Z,94203.34
2023-02-22T00:08:49.804Z,94210.91
2023-02-22T00:11:17.099Z,94211.41
2023-02-22T00:13:45.150Z,94203.34
2023-02-22T00:16:21.147Z,94199.34
2023-02-22T00:18:49.002Z,94203.84
2023-02-22T00:21:17.055Z,94210.13
2023-02-22T00:23:48.761Z,94200.50
2023-02-22T00:26:20.444Z,94202.13
2023-02-22T00:28:52.706Z,94198.28
2023-02-22T00:31:21.005Z,94203.03
2023-02-22T00:33:47.887Z,94200.19
2023-02-22T00:36:15.121Z,94202.78
2023-02-22T00:38:42.630Z,94199.06
2023-02-22T00:41:09.918Z,94201.47
2023-02-22T00:43:37.087Z,94207.56
2023-02-22T00:46:04.003Z,94198.78
2023-02-22T00:48:30.833Z,94190.78
2023-02-22T00:50:57.687Z,94201.16
2023-02-22T00:53:25.414Z,94197.00
2023-02-22T00:55:53.085Z,94192.53
2023-02-22T00:58:20.595Z,94184.56
2023-02-22T01:00:47.973Z,94190.78
2023-02-22T01:03:18.583Z,94183.13
2023-02-22T01:05:45.756Z,94186.28
2023-02-22T01:08:14.240Z,94177.47
2023-02-22T01:10:41.371Z,94179.44
2023-02-22T01:13:09.586Z,94180.06
2023-02-22T01:15:38.414Z,94185.88
2023-02-22T01:18:05.841Z,94179.59
2023-02-22T01:20:33.841Z,94175.94
2023-02-22T01:23:03.525Z,94179.31
2023-02-22T01:25:31.431Z,94176.91
2023-02-22T01:28:00.126Z,94181.09
2023-02-22T01:30:30.354Z,94161.75
2023-02-22T01:32:57.274Z,94169.56
2023-02-22T01:35:28.038Z,94160.94
2023-02-22T01:37:55.491Z,94165.41
2023-02-22T01:40:28.653Z,94169.88
2023-02-22T01:42:57.908Z,94165.56
2023-02-22T01:45:30.644Z,94166.19
2023-02-22T01:48:04.066Z,94163.00
2023-02-22T01:50:33.421Z,94159.94
2023-02-22T01:53:00.847Z,94162.38
2023-02-22T01:55:28.224Z,94167.34
2023-02-22T01:57:55.136Z,94160.28
2023-02-22T02:00:24.447Z,94161.22
2023-02-22T02:02:59.040Z,94159.47
2023-02-22T02:05:33.235Z,94155.81
2023-02-22T02:08:03.785Z,94155.97
2023-02-22T02:10:32.139Z,94153.59
2023-02-22T02:12:58.929Z,94146.88
2023-02-22T02:15:30.867Z,94142.91
2023-02-22T02:18:03.310Z,94142.09
2023-02-22T02:20:35.786Z,94143.38
2023-02-22T02:23:24.472Z,94137.94
2023-02-22T02:26:06.445Z,94137.94
2023-02-22T02:28:52.041Z,94139.81
2023-02-22T02:31:21.641Z,94136.63
2023-02-22T02:33:57.913Z,94137.28
2023-02-22T02:36:35.598Z,94129.59
2023-02-22T02:39:18.019Z,94138.25
2023-02-22T02:41:48.442Z,94130.59
2023-02-22T02:44:20.400Z,94126.09
2023-02-22T02:46:52.057Z,94130.25
2023-02-22T02:49:31.730Z,94123.84
2023-02-22T02:51:58.859Z,94128.50
2023-02-22T02:54:25.703Z,94120.47
2023-02-22T02:56:52.626Z,94116.81
2023-02-22T02:59:28.724Z,94117.47
2023-02-22T03:02:16.790Z,94111.41
2023-02-22T03:05:15.716Z,94112.53
2023-02-22T03:08:10.927Z,94114.78
2023-02-22T03:10:50.518Z,94106.13
2023-02-22T03:13:42.201Z,94105.34
2023-02-22T03:16:43.755Z,94105.66
2023-02-22T03:19:30.908Z,94118.13
2023-02-22T03:22:03.878Z,94108.22
2023-02-22T03:24:35.451Z,94109.66
2023-02-22T03:27:28.189Z,94108.38
2023-02-22T03:30:00.515Z,94119.09
2023-02-22T03:32:33.683Z,94114.44
2023-02-22T03:35:06.559Z,94109.50
2023-02-22T03:37:35.951Z,94119.56
2023-02-22T03:40:13.926Z,94104.53
2023-02-22T03:42:44.405Z,94118.13
2023-02-22T03:45:12.515Z,94114.91
2023-02-22T03:47:42.400Z,94115.88
2023-02-22T03:50:18.872Z,94117.94
2023-02-22T03:52:47.589Z,94116.16
2023-02-22T03:55:17.804Z,94125.44
2023-02-22T03:57:54.833Z,94122.56
2023-02-22T04:00:25.913Z,94119.09
2023-02-22T04:02:52.676Z,94123.22
2023-02-22T04:05:19.786Z,94121.63
2023-02-22T04:07:46.663Z,94116.81
2023-02-22T04:10:14.184Z,94118.91
2023-02-22T04:12:41.094Z,94120.63
2023-02-22T04:15:09.101Z,94120.34
2023-02-22T04:17:35.809Z,94114.88
2023-02-22T04:20:03.161Z,94113.91
2023-02-22T04:22:29.851Z,94119.97
2023-02-22T04:24:56.637Z,94118.19
2023-02-22T04:27:23.309Z,94112.09
2023-02-22T04:29:50.049Z,94114.50
2023-02-22T04:32:16.893Z,94116.56
2023-02-22T04:34:43.590Z,94102.69
2023-02-22T04:37:10.609Z,94094.56
2023-02-22T04:39:37.389Z,94103.06
2023-02-22T04:42:05.202Z,94099.38
2023-02-22T04:44:32.202Z,94090.88
2023-02-22T04:46:59.025Z,94092.34
2023-02-22T04:49:25.788Z,94086.28
2023-02-22T04:51:52.594Z,94095.94
2023-02-22T04:54:19.272Z,94090.50
2023-02-22T04:56:46.120Z,94086.69
2023-02-22T04:59:12.832Z,94084.28
2023-02-22T05:01:39.574Z,94093.09
2023-02-22T05:04:07.725Z,94097.22
2023-02-22T05:06:34.564Z,94092.91
2023-02-22T05:09:01.352Z,94097.91
2023-02-22T05:11:28.143Z,94084.34
2023-02-22T05:13:54.880Z,94096.16
2023-02-22T05:16:21.869Z,94089.78
2023-02-22T05:18:48.690Z,94082.13
2023-02-22T05:21:15.615Z,94082.94
2023-02-22T05:23:42.428Z,94075.25
2023-02-22T05:26:11.595Z,94074.28
2023-02-22T05:28:38.996Z,94070.13
2023-02-22T05:31:07.494Z,94069.63
2023-02-22T05:33:34.219Z,94060.53
2023-02-22T05:36:00.890Z,94065.28
2023-02-22T05:38:27.757Z,94067.19
2023-02-22T05:40:54.451Z,94066.56
2023-02-22T05:43:21.169Z,94063.69
2023-02-22T05:45:47.767Z,94067.69
2023-02-22T05:48:14.334Z,94067.19
2023-02-22T05:50:40.876Z,94065.53
2023-02-22T05:53:07.754Z,94064.28
2023-02-22T05:55:34.372Z,94062.53
2023-02-22T05:58:01.861Z,94064.00
2023-02-22T06:00:31.215Z,94057.13
2023-02-22T06:02:59.824Z,94057.09
2023-02-22T06:05:26.936Z,94053.13
2023-02-22T06:07:54.196Z,94052.78
2023-02-22T06:10:21.238Z,94055.22
2023-02-22T06:12:49.257Z,94058.88
2023-02-22T06:15:17.152Z,94059.22
2023-02-22T06:17:44.022Z,94077.16
2023-02-22T06:20:12.473Z,94068.97
2023-02-22T06:22:41.327Z,94066.50
2023-02-22T06:25:09.088Z,94064.41
2023-02-22T06:27:36.516Z,94072.78
2023-02-22T06:30:03.547Z,94076.78
2023-02-22T06:32:30.354Z,94077.69
2023-02-22T06:34:57.188Z,94079.28
2023-02-22T06:37:23.932Z,94080.69
2023-02-22T06:39:50.748Z,94076.81
2023-02-22T06:42:17.638Z,94091.19
2023-02-22T06:44:44.538Z,94096.34
2023-02-22T06:47:11.289Z,94098.97
2023-02-22T06:49:38.013Z,94101.41
2023-02-22T06:52:06.689Z,94113.94
2023-02-22T06:54:33.746Z,94106.25
2023-02-22T06:57:00.459Z,94104.66
2023-02-22T06:59:28.145Z,94101.63
2023-02-22T07:01:54.983Z,94103.03
2023-02-22T07:04:22.141Z,94095.94
2023-02-22T07:06:50.384Z,94096.81
2023-02-22T07:09:18.410Z,94099.41
2023-02-22T07:11:45.123Z,94099.84
2023-02-22T07:14:11.935Z,94100.97
2023-02-22T07:16:38.777Z,94100.25
2023-02-22T07:19:05.538Z,94102.75
2023-02-22T07:21:32.346Z,94102.38
2023-02-22T07:23:59.354Z,94098.97
2023-02-22T07:26:26.771Z,94097.81
2023-02-22T07:28:53.493Z,94100.91
2023-02-22T07:31:20.275Z,94101.81
2023-02-22T07:33:47.799Z,94085.59
2023-02-22T07:36:17.847Z,94085.78
2023-02-22T07:38:46.384Z,94082.16
2023-02-22T07:41:13.352Z,94084.59
2023-02-22T07:43:40.085Z,94082.50
2023-02-22T07:46:06.948Z,94079.72
2023-02-22T07:48:33.665Z,94077.47
2023-02-22T07:51:00.483Z,94073.59
2023-02-22T07:53:30.425Z,94078.00
2023-02-22T07:55:58.336Z,94081.63
2023-02-22T07:58:26.533Z,94078.00
2023-02-22T08:00:53.427Z,94082.28
2023-02-22T08:03:22.012Z,94077.34
2023-02-22T08:05:52.238Z,94078.66
2023-02-22T08:08:20.006Z,94077.84
2023-02-22T08:10:47.738Z,94079.84
2023-02-22T08:13:14.763Z,94075.19
2023-02-22T08:15:42.133Z,94074.22
2023-02-22T08:18:11.217Z,94077.72
2023-02-22T08:20:39.406Z,94065.88
2023-02-22T08:23:07.301Z,94065.84
2023-02-22T08:25:34.458Z,94070.09
2023-02-22T08:28:09.980Z,94075.91
2023-02-22T08:30:40.252Z,94070.16
2023-02-22T08:33:07.454Z,94073.41
2023-02-22T08:35:34.575Z,94074.00
2023-02-22T08:38:06.138Z,94067.56
2023-02-22T08:40:36.036Z,94069.97
2023-02-22T08:43:04.081Z,94074.78
2023-02-22T08:45:30.874Z,94065.72
2023-02-22T08:47:58.632Z,94066.66
2023-02-22T08:50:28.645Z,94063.19
2023-02-22T08:52:58.779Z,94059.69
2023-02-22T08:55:27.821Z,94059.28
2023-02-22T08:57:54.559Z,94049.13
2023-02-22T09:00:24.825Z,94055.03
2023-02-22T09:02:52.523Z,94054.56
2023-02-22T09:05:19.389Z,94049.84
2023-02-22T09:07:46.284Z,94050.03
2023-02-22T09:10:24.604Z,94046.75
2023-02-22T09:12:52.265Z,94045.94
2023-02-22T09:15:19.431Z,94046.41
2023-02-22T09:17:46.290Z,94044.25
2023-02-22T09:20:14.057Z,94033.75
2023-02-22T09:22:41.526Z,94030.84
2023-02-22T09:25:16.621Z,94031.28
2023-02-22T09:27:44.265Z,94032.06
2023-02-22T09:30:25.636Z,94026.38
2023-02-22T09:32:54.325Z,94025.19
2023-02-22T09:35:27.171Z,94016.94
2023-02-22T09:37:57.651Z,94015.88
2023-02-22T09:40:29.937Z,94016.44
2023-02-22T09:43:21.971Z,94012.47
2023-02-22T09:45:58.295Z,94013.47
2023-02-22T09:48:25.441Z,94008.59
2023-02-22T09:50:54.216Z,93994.78
2023-02-22T09:53:42.049Z,93989.75
2023-02-22T09:56:11.463Z,93996.09
2023-02-22T09:58:45.975Z,93993.00
2023-02-22T10:01:27.128Z,93982.72
2023-02-22T10:04:09.509Z,93986.34
2023-02-22T10:06:37.621Z,93978.06
2023-02-22T10:09:08.118Z,93961.97
2023-02-22T10:11:42.830Z,93967.31
2023-02-22T10:14:43.793Z,93960.56
2023-02-22T10:17:40.869Z,93957.81
2023-02-22T10:20:28.699Z,93947.88
2023-02-22T10:23:20.280Z,93948.50
2023-02-22T10:25:53.538Z,93943.94
2023-02-22T10:28:24.496Z,93938.75
2023-02-22T10:30:59.309Z,93934.25
2023-02-22T10:33:35.841Z,93929.59
2023-02-22T10:36:03.375Z,93928.88
2023-02-22T10:38:32.646Z,93922.91
2023-02-22T10:41:04.013Z,93923.22
2023-02-22T10:43:31.123Z,93922.03
2023-02-22T10:46:01.549Z,93912.38
2023-02-22T10:48:30.353Z,93907.22
2023-02-22T10:51:02.582Z,93902.72
2023-02-22T10:53:30.448Z,93903.19
2023-02-22T10:56:16.901Z,93900.75
2023-02-22T10:58:48.027Z,93900.22
2023-02-22T11:01:24.094Z,93901.06
2023-02-22T11:04:21.632Z,93882.19
2023-02-22T11:06:58.704Z,93886.13
2023-02-22T11:09:25.845Z,93876.72
2023-02-22T11:12:19.903Z,93872.03
2023-02-22T11:14:47.184Z,93870.44
2023-02-22T11:17:19.737Z,93862.41
2023-02-22T11:19:50.176Z,93859.75
2023-02-22T11:22:31.043Z,93859.25
2023-02-22T11:25:07.537Z,93848.13
2023-02-22T11:27:41.077Z,93846.56
2023-02-22T11:30:18.276Z,93828.38
2023-02-22T11:32:46.873Z,93834.72
2023-02-22T11:35:28.846Z,93830.84
2023-02-22T11:38:12.060Z,93820.78
2023-02-22T11:40:40.284Z,93816.50
2023-02-22T11:43:12.430Z,93802.53
2023-02-22T11:45:44.187Z,93795.53
2023-02-22T11:48:21.072Z,93791.09
2023-02-22T11:51:14.863Z,93792.31
2023-02-22T11:53:47.646Z,93790.72
2023-02-22T11:56:28.356Z,93783.22
2023-02-22T11:59:25.019Z,93779.38
2023-02-22T12:01:57.302Z,93774.66
2023-02-22T12:04:42.825Z,93778.09
2023-02-22T12:07:31.085Z,93769.78
2023-02-22T12:10:15.993Z,93762.56
2023-02-22T12:13:01.948Z,93757.44
2023-02-22T12:15:52.185Z,93755.81
2023-02-22T12:18:58.088Z,93746.38
2023-02-22T12:21:25.518Z,93750.09
2023-02-22T12:24:14.585Z,93742.50
2023-02-22T12:26:44.029Z,93745.38
2023-02-22T12:29:26.402Z,93740.94
2023-02-22T12:32:07.844Z,93740.81
2023-02-22T12:34:41.520Z,93727.69
2023-02-22T12:37:28.065Z,93735.69
2023-02-22T12:40:08.658Z,93729.38
2023-02-22T12:42:48.647Z,93726.69
2023-02-22T12:45:40.134Z,93719.91
2023-02-22T12:48:25.449Z,93715.69
2023-02-22T12:50:59.763Z,93714.16
2023-02-22T12:53:32.746Z,93707.97
2023-02-22T12:56:10.236Z,93703.50
2023-02-22T12:58:41.176Z,93699.00
2023-02-22T13:01:18.109Z,93697.81
2023-02-22T13:03:45.794Z,93700.03
2023-02-22T13:06:39.897Z,93697.38
2023-02-22T13:09:18.471Z,93690.56
2023-02-22T13:12:17.468Z,93688.22
2023-02-22T13:15:28.529Z,93690.31
2023-02-22T13:18:19.691Z,93689.41
2023-02-22T13:20:56.229Z,93679.88
2023-02-22T13:23:33.242Z,93680.94
2023-02-22T13:26:09.266Z,93674.03
2023-02-22T13:28:51.307Z,93680.84
2023-02-22T13:31:46.644Z,93672.63
2023-02-22T13:34:19.733Z,93681.81
2023-02-22T13:37:02.577Z,93672.66
2023-02-22T13:39:54.807Z,93675.25
2023-02-22T13:42:47.553Z,93668.13
2023-02-22T13:45:41.827Z,93668.47
2023-02-22T13:48:33.265Z,93664.16
2023-02-22T13:51:15.005Z,93664.59
2023-02-22T13:53:47.822Z,93659.72
2023-02-22T13:56:15.083Z,93652.94
2023-02-22T13:58:53.578Z,93640.41
2023-02-22T14:01:47.888Z,93656.78
2023-02-22T14:04:29.948Z,93643.50
2023-02-22T14:07:05.448Z,93640.13
2023-02-22T14:09:52.304Z,93636.06
2023-02-22T14:12:31.231Z,93644.97
2023-02-22T14:15:18.677Z,93644.47
2023-02-22T14:17:57.344Z,93641.84
2023-02-22T14:20:35.308Z,93638.19
2023-02-22T14:23:23.796Z,93635.59
2023-02-22T14:25:51.016Z,93635.06
2023-02-22T14:28:37.960Z,93637.41
2023-02-22T14:31:29.292Z,93627.59
2023-02-22T14:34:02.359Z,93633.13
2023-02-22T14:36:50.993Z,93631.66
2023-02-22T14:39:32.302Z,93632.66
2023-02-22T14:42:04.453Z,93613.53
2023-02-22T14:44:40.148Z,93626.84
2023-02-22T14:47:14.467Z,93633.34
2023-02-22T14:49:44.422Z,93627.16
2023-02-22T14:52:24.375Z,93623.03
2023-02-22T14:55:16.748Z,93630.34
2023-02-22T14:58:12.858Z,93630.53
2023-02-22T15:00:46.093Z,93631.50
2023-02-22T15:03:37.535Z,93636.13
2023-02-22T15:06:07.783Z,93628.09
2023-02-22T15:08:34.960Z,93629.22
2023-02-22T15:11:02.549Z,93623.75
2023-02-22T15:13:33.193Z,93629.63
2023-02-22T15:16:08.006Z,93629.75
2023-02-22T15:18:42.136Z,93623.56
2023-02-22T15:21:13.570Z,93626.19
2023-02-22T15:23:45.042Z,93625.03
2023-02-22T15:26:19.415Z,93628.13
2023-02-22T15:28:46.231Z,93634.28
2023-02-22T15:31:33.471Z,93623.22
2023-02-22T15:34:22.331Z,93624.16
2023-02-22T15:36:54.637Z,93623.81
2023-02-22T15:39:29.442Z,93623.50
2023-02-22T15:42:19.342Z,93613.84
2023-02-22T15:44:52.418Z,93621.50
2023-02-22T15:47:28.086Z,93618.03
2023-02-22T15:50:32.385Z,93612.91
2023-02-22T15:53:22.524Z,93619.53
2023-02-22T15:55:55.556Z,93625.13
2023-02-22T15:58:24.517Z,93628.19
2023-02-22T16:01:09.043Z,93629.69
2023-02-22T16:03:45.072Z,93628.13
2023-02-22T16:06:28.560Z,93629.44
2023-02-22T16:08:56.806Z,93622.50
2023-02-22T16:11:30.189Z,93641.31
2023-02-22T16:14:05.130Z,93632.50
2023-02-22T16:16:34.415Z,93627.72
2023-02-22T16:19:25.306Z,93631.97
2023-02-22T16:21:53.764Z,93631.53
2023-02-22T16:24:28.305Z,93633.31
2023-02-22T16:27:24.681Z,93637.94
2023-02-22T16:30:33.179Z,93640.72
2023-02-22T16:33:02.858Z,93642.56
2023-02-22T16:35:29.753Z,93650.25
2023-02-22T16:38:00.466Z,93646.88
2023-02-22T16:40:34.665Z,93648.22
2023-02-22T16:43:03.809Z,93642.94
2023-02-22T16:45:30.594Z,93650.53
2023-02-22T16:47:57.393Z,93652.66
2023-02-22T16:50:24.043Z,93649.41
2023-02-22T16:52:53.885Z,93642.41
2023-02-22T16:55:20.955Z,93659.91
2023-02-22T16:57:49.089Z,93656.16
2023-02-22T17:00:31.574Z,93652.13
2023-02-22T17:03:00.010Z,93666.72
2023-02-22T17:05:26.902Z,93663.22
2023-02-22T17:07:53.595Z,93667.59
2023-02-22T17:10:20.639Z,93667.03
2023-02-22T17:12:50.675Z,93678.25
2023-02-22T17:15:32.629Z,93677.31
2023-02-22T17:17:59.793Z,93673.28
2023-02-22T17:20:32.508Z,93675.16
2023-02-22T17:23:04.974Z,93685.41
2023-02-22T17:25:38.492Z,93678.28
2023-02-22T17:28:05.872Z,93687.53
2023-02-22T17:30:33.120Z,93689.31
2023-02-22T17:33:03.886Z,93691.53
2023-02-22T17:35:36.589Z,93688.63
2023-02-22T17:38:08.251Z,93698.44
2023-02-22T17:40:37.084Z,93696.53
2023-02-22T17:43:04.723Z,93693.31
2023-02-22T17:45:31.958Z,93691.38
2023-02-22T17:47:59.638Z,93691.06
2023-02-22T17:50:26.955Z,93696.72
2023-02-22T17:52:53.871Z,93689.38
2023-02-22T17:55:21.610Z,93696.72
2023-02-22T17:57:58.383Z,93695.16
2023-02-22T18:00:33.212Z,93692.22
2023-02-22T18:03:05.853Z,93692.03
2023-02-22T18:05:33.563Z,93696.66
2023-02-22T18:08:00.629Z,93696.38
2023-02-22T18:10:27.400Z,93695.38
2023-02-22T18:12:55.198Z,93689.97
2023-02-22T18:15:22.058Z,93701.28
2023-02-22T18:17:49.381Z,93695.09
2023-02-22T18:20:20.511Z,93695.19
2023-02-22T18:22:47.394Z,93696.56
2023-02-22T18:25:15.877Z,93691.47
2023-02-22T18:27:46.056Z,93697.31
2023-02-22T18:30:13.107Z,93700.16
2023-02-22T18:32:40.178Z,93702.34
2023-02-22T18:35:07.660Z,93697.00
2023-02-22T18:37:34.729Z,93690.44
2023-02-22T18:40:01.525Z,93698.38
2023-02-22T18:42:28.668Z,93693.28
2023-02-22T18:45:00.766Z,93694.63
2023-02-22T18:47:27.636Z,93694.69
2023-02-22T18:49:54.419Z,93698.91
2023-02-22T18:52:21.236Z,93686.00
2023-02-22T18:54:49.278Z,93700.94
2023-02-22T18:57:16.318Z,93702.66
2023-02-22T18:59:43.778Z,93700.31
2023-02-22T19:02:20.571Z,93700.53
2023-02-22T19:04:48.171Z,93697.16
2023-02-22T19:07:18.341Z,93701.53
2023-02-22T19:09:45.251Z,93698.97
2023-02-22T19:12:12.064Z,93706.69
2023-02-22T19:14:38.742Z,93700.00
2023-02-22T19:17:07.548Z,93702.56
2023-02-22T19:19:34.641Z,93700.38
2023-02-22T19:22:01.394Z,93707.72
2023-02-22T19:24:28.812Z,93697.00
2023-02-22T19:26:57.728Z,93702.94
2023-02-22T19:29:26.303Z,93699.56
2023-02-22T19:31:53.907Z,93703.34
2023-02-22T19:34:24.954Z,93709.63
2023-02-22T19:36:52.119Z,93712.03
2023-02-22T19:39:20.610Z,93708.47
2023-02-22T19:41:48.509Z,93711.19
2023-02-22T19:44:16.171Z,93701.53
2023-02-22T19:46:42.992Z,93710.81
2023-02-22T19:49:09.764Z,93714.94
2023-02-22T19:51:36.598Z,93715.94
2023-02-22T19:54:08.302Z,93710.03
2023-02-22T19:56:36.783Z,93716.25
2023-02-22T19:59:09.806Z,93716.66
2023-02-22T20:01:36.971Z,93722.69
2023-02-22T20:04:07.318Z,93727.75
2023-02-22T20:06:40.386Z,93724.19
2023-02-22T20:09:09.573Z,93733.25
2023-02-22T20:11:36.363Z,93723.94
2023-02-22T20:14:06.592Z,93728.56
2023-02-22T20:16:34.465Z,93734.44
2023-02-22T20:19:01.868Z,93734.78
2023-02-22T20:21:34.508Z,93736.00
2023-02-22T20:24:03.125Z,93734.59
2023-02-22T20:26:31.849Z,93732.69
2023-02-22T20:28:59.101Z,93729.25
2023-02-22T20:31:27.033Z,93732.94
2023-02-22T20:33:55.979Z,93733.94
2023-02-22T20:36:23.931Z,93738.28
2023-02-22T20:38:55.141Z,93744.97
2023-02-22T20:41:31.083Z,93742.03
2023-02-22T20:43:58.362Z,93744.91
2023-02-22T20:46:26.358Z,93738.53
2023-02-22T20:48:57.795Z,93746.50
2023-02-22T20:51:25.524Z,93744.06
2023-02-22T20:53:52.414Z,93748.63
2023-02-22T20:56:21.822Z,93747.03
2023-02-22T20:58:48.859Z,93749.16
2023-02-22T21:01:17.933Z,93751.16
2023-02-22T21:03:45.598Z,93750.00
2023-02-22T21:06:17.605Z,93747.53
2023-02-22T21:08:46.478Z,93749.06
2023-02-22T21:11:15.142Z,93746.41
2023-02-22T21:13:42.373Z,93752.97
2023-02-22T21:16:10.611Z,93754.03
2023-02-22T21:18:37.553Z,93741.56
2023-02-22T21:21:10.516Z,93745.41
2023-02-22T21:23:38.927Z,93744.91
2023-02-22T21:26:06.052Z,93747.81
2023-02-22T21:28:50.552Z,93748.28
2023-02-22T21:31:20.337Z,93743.94
2023-02-22T21:33:50.694Z,93741.28
2023-02-22T21:36:18.598Z,93738.81
2023-02-22T21:38:48.647Z,93744.22
2023-02-22T21:41:17.398Z,93749.00
2023-02-22T21:43:44.622Z,93740.41
2023-02-22T21:46:11.855Z,93745.06
2023-02-22T21:48:39.143Z,93752.78
2023-02-22T21:51:14.358Z,93740.25
2023-02-22T21:53:53.026Z,93742.59
2023-02-22T21:56:29.112Z,93723.59
2023-02-22T21:59:00.899Z,93740.44
2023-02-22T22:01:29.666Z,93736.91
2023-02-22T22:03:59.598Z,93738.75
2023-02-22T22:06:28.074Z,93739.25
2023-02-22T22:08:54.939Z,93737.16
2023-02-22T22:11:22.167Z,93741.44
2023-02-22T22:13:49.234Z,93735.03
2023-02-22T22:16:18.457Z,93736.25
2023-02-22T22:18:46.854Z,93741.13
2023-02-22T22:21:18.002Z,93738.78
2023-02-22T22:23:47.190Z,93740.03
2023-02-22T22:26:16.452Z,93748.78
2023-02-22T22:28:52.080Z,93738.22
2023-02-22T22:31:21.214Z,93743.66
2023-02-22T22:33:48.214Z,93735.84
2023-02-22T22:36:17.685Z,93737.50
2023-02-22T22:38:47.192Z,93725.94
2023-02-22T22:41:16.020Z,93723.72
2023-02-22T22:43:46.074Z,93732.75
2023-02-22T22:46:15.117Z,93733.75
2023-02-22T22:48:42.030Z,93747.00
2023-02-22T22:51:10.471Z,93744.19
2023-02-22T22:53:41.786Z,93739.63
2023-02-22T22:56:17.534Z,93744.66
2023-02-22T22:58:48.821Z,93742.41
2023-02-22T23:01:20.210Z,93741.44
2023-02-22T23:03:54.794Z,93744.38
2023-02-22T23:06:26.857Z,93748.28
2023-02-22T23:09:00.121Z,93749.97
2023-02-22T23:11:29.056Z,93751.19
2023-02-22T23:13:56.515Z,93739.84
2023-02-22T23:16:24.374Z,93754.44
2023-02-22T23:18:51.533Z,93743.78
2023-02-22T23:21:19.645Z,93749.88
2023-02-22T23:23:51.363Z,93750.31
2023-02-22T23:26:19.327Z,93752.88
2023-02-22T23:28:48.235Z,93748.47
2023-02-22T23:31:16.908Z,93751.03
2023-02-22T23:33:44.999Z,93748.53
2023-02-22T23:36:12.519Z,93749.69
2023-02-22T23:38:40.014Z,93750.59
2023-02-22T23:41:10.173Z,93746.72
2023-02-22T23:43:41.136Z,93745.81
2023-02-22T23:46:14.399Z,93745.53
2023-02-22T23:48:46.759Z,93741.31
2023-02-22T23:51:15.544Z,93747.75
2023-02-22T23:53:46.364Z,93742.97
2023-02-22T23:56:14.729Z,93745.47
2023-02-22T23:58:42.234Z,93742.19
